createdAt,value
2023-03-17T00:00:37.645Z,0.00
2023-03-17T00:01:37.701Z,0.00
2023-03-17T00:02:37.730Z,0.00
2023-03-17T00:03:37.672Z,0.00
2023-03-17T00:04:37.594Z,0.00
2023-03-17T00:05:37.594Z,0.00
2023-03-17T00:06:37.579Z,0.00
2023-03-17T00:07:37.585Z,0.00
2023-03-17T00:08:37.571Z,0.00
2023-03-17T00:09:37.568Z,0.00
2023-03-17T00:10:37.532Z,0.00
2023-03-17T00:11:37.522Z,0.00
2023-03-17T00:12:37.509Z,0.00
2023-03-17T00:13:37.521Z,0.00
2023-03-17T00:14:37.575Z,0.00
2023-03-17T00:15:37.583Z,0.00
2023-03-17T00:16:37.469Z,0.00
2023-03-17T00:17:38.030Z,0.00
2023-03-17T00:18:37.465Z,0.00
2023-03-17T00:19:37.537Z,0.00
2023-03-17T00:20:37.447Z,0.00
2023-03-17T00:21:37.572Z,0.00
2023-03-17T00:22:37.402Z,0.00
2023-03-17T00:23:37.671Z,0.00
2023-03-17T00:24:37.407Z,0.00
2023-03-17T00:25:37.543Z,0.00
2023-03-17T00:26:37.355Z,0.00
2023-03-17T00:27:37.519Z,0.00
2023-03-17T00:28:37.338Z,0.00
2023-03-17T00:29:37.707Z,0.00
2023-03-17T00:30:37.307Z,0.00
2023-03-17T00:31:37.352Z,0.00
2023-03-17T00:32:37.326Z,0.00
2023-03-17T00:33:37.341Z,0.00
2023-03-17T00:34:37.271Z,0.00
2023-03-17T00:35:37.294Z,0.00
2023-03-17T00:36:37.261Z,0.00
2023-03-17T00:37:37.247Z,0.00
2023-03-17T00:38:37.221Z,0.00
2023-03-17T00:39:37.228Z,0.00
2023-03-17T00:40:37.218Z,0.00
2023-03-17T00:41:37.189Z,0.00
2023-03-17T00:42:37.184Z,0.00
2023-03-17T00:43:37.205Z,0.00
2023-03-17T00:44:37.189Z,0.00
2023-03-17T00:45:37.239Z,0.00
2023-03-17T00:46:37.339Z,0.00
2023-03-17T00:47:37.116Z,0.00
2023-03-17T00:48:37.113Z,0.00
2023-03-17T00:49:37.102Z,0.00
2023-03-17T00:50:37.103Z,0.00
2023-03-17T00:51:37.092Z,0.00
2023-03-17T00:52:37.081Z,0.00
2023-03-17T00:53:37.059Z,0.00
2023-03-17T00:54:37.061Z,0.00
2023-03-17T00:55:37.028Z,0.00
2023-03-17T00:56:37.034Z,0.00
2023-03-17T00:57:37.039Z,0.00
2023-03-17T00:58:37.003Z,0.00
2023-03-17T00:59:37.007Z,0.00
2023-03-17T01:00:37.072Z,0.00
2023-03-17T01:01:37.117Z,0.00
2023-03-17T01:02:36.945Z,0.00
2023-03-17T01:03:36.948Z,0.00
2023-03-17T01:04:36.936Z,0.00
2023-03-17T01:05:36.916Z,0.00
2023-03-17T01:06:36.933Z,0.00
2023-03-17T01:07:36.889Z,0.00
2023-03-17T01:08:36.892Z,0.00
2023-03-17T01:09:36.874Z,0.00
2023-03-17T01:10:36.856Z,0.00
2023-03-17T01:11:36.861Z,0.00
2023-03-17T01:12:36.881Z,0.00
2023-03-17T01:13:36.839Z,0.00
2023-03-17T01:14:38.073Z,0.00
2023-03-17T01:15:36.814Z,0.00
2023-03-17T01:16:36.889Z,0.00
2023-03-17T01:17:36.796Z,0.00
2023-03-17T01:18:36.798Z,0.00
2023-03-17T01:19:36.819Z,0.00
2023-03-17T01:20:36.792Z,0.00
2023-03-17T01:21:36.734Z,0.00
2023-03-17T01:22:36.725Z,0.00
2023-03-17T01:23:36.716Z,0.00
2023-03-17T01:24:36.748Z,0.00
2023-03-17T01:25:36.704Z,0.00
2023-03-17T01:26:36.698Z,0.00
2023-03-17T01:27:36.724Z,0.00
2023-03-17T01:28:36.682Z,0.00
2023-03-17T01:29:36.644Z,0.00
2023-03-17T01:30:36.635Z,0.00
2023-03-17T01:31:36.716Z,0.00
2023-03-17T01:32:36.675Z,0.00
2023-03-17T01:33:36.605Z,0.00
2023-03-17T01:34:36.595Z,0.00
2023-03-17T01:35:36.620Z,0.00
2023-03-17T01:36:36.590Z,0.00
2023-03-17T01:37:36.570Z,0.00
2023-03-17T01:38:36.654Z,0.00
2023-03-17T01:39:36.538Z,0.00
2023-03-17T01:40:36.535Z,0.00
2023-03-17T01:41:36.565Z,0.00
2023-03-17T01:42:36.516Z,0.00
2023-03-17T01:43:36.491Z,0.00
2023-03-17T01:44:36.499Z,0.00
2023-03-17T01:45:36.533Z,0.00
2023-03-17T01:46:36.481Z,0.00
2023-03-17T01:47:36.461Z,0.00
2023-03-17T01:48:36.464Z,0.00
2023-03-17T01:49:36.426Z,0.00
2023-03-17T01:50:36.423Z,0.00
2023-03-17T01:51:36.420Z,0.00
2023-03-17T01:52:36.585Z,0.00
2023-03-17T01:53:36.374Z,0.00
2023-03-17T01:54:36.382Z,0.00
2023-03-17T01:55:47.213Z,0.00
2023-03-17T01:56:36.374Z,0.00
2023-03-17T01:57:36.327Z,0.00
2023-03-17T01:58:36.314Z,0.00
2023-03-17T01:59:36.330Z,0.00
2023-03-17T02:00:36.306Z,0.00
2023-03-17T02:01:36.278Z,0.00
2023-03-17T02:02:36.281Z,0.00
2023-03-17T02:03:36.277Z,0.00
2023-03-17T02:04:36.430Z,0.00
2023-03-17T02:05:36.260Z,0.00
2023-03-17T02:06:40.194Z,0.00
2023-03-17T02:07:37.218Z,0.00
2023-03-17T02:08:36.234Z,0.00
2023-03-17T02:09:36.212Z,0.00
2023-03-17T02:10:36.190Z,0.00
2023-03-17T02:11:36.189Z,0.00
2023-03-17T02:12:36.153Z,0.00
2023-03-17T02:13:36.146Z,0.00
2023-03-17T02:14:36.134Z,0.00
2023-03-17T02:15:36.169Z,0.00
2023-03-17T02:16:36.310Z,0.00
2023-03-17T02:17:36.135Z,0.00
2023-03-17T02:18:36.094Z,0.00
2023-03-17T02:19:36.086Z,0.00
2023-03-17T02:20:36.060Z,0.00
2023-03-17T02:21:36.077Z,0.00
2023-03-17T02:22:36.055Z,0.00
2023-03-17T02:23:36.032Z,0.00
2023-03-17T02:24:36.028Z,0.00
2023-03-17T02:25:36.038Z,0.00
2023-03-17T02:26:35.994Z,0.00
2023-03-17T02:27:36.013Z,0.00
2023-03-17T02:28:35.990Z,0.00
2023-03-17T02:29:36.010Z,0.00
2023-03-17T02:30:35.996Z,0.00
2023-03-17T02:31:35.943Z,0.00
2023-03-17T02:32:36.107Z,0.00
2023-03-17T02:33:35.944Z,0.00
2023-03-17T02:34:35.932Z,0.00
2023-03-17T02:35:36.002Z,0.00
2023-03-17T02:36:35.948Z,0.00
2023-03-17T02:37:35.905Z,0.00
2023-03-17T02:38:35.868Z,0.00
2023-03-17T02:39:35.863Z,0.00
2023-03-17T02:40:35.839Z,0.00
2023-03-17T02:41:35.836Z,0.00
2023-03-17T02:42:35.979Z,0.00
2023-03-17T02:43:35.809Z,0.00
2023-03-17T02:44:35.805Z,0.00
2023-03-17T02:45:35.802Z,0.00
2023-03-17T02:46:35.777Z,0.00
2023-03-17T02:47:35.794Z,0.00
2023-03-17T02:48:35.785Z,0.00
2023-03-17T02:49:35.776Z,0.00
2023-03-17T02:50:35.755Z,0.00
2023-03-17T02:51:35.880Z,0.00
2023-03-17T02:52:35.705Z,0.00
2023-03-17T02:53:35.696Z,0.00
2023-03-17T02:54:35.741Z,0.00
2023-03-17T02:55:35.683Z,0.00
2023-03-17T02:56:35.703Z,0.00
2023-03-17T02:57:35.679Z,0.00
2023-03-17T02:58:35.671Z,0.00
2023-03-17T02:59:35.631Z,0.00
2023-03-17T03:00:35.626Z,0.00
2023-03-17T03:01:35.667Z,0.00
2023-03-17T03:02:35.657Z,0.00
2023-03-17T03:03:35.649Z,0.00
2023-03-17T03:04:35.611Z,0.00
2023-03-17T03:05:35.562Z,0.00
2023-03-17T03:06:35.553Z,0.00
2023-03-17T03:07:35.545Z,0.00
2023-03-17T03:08:35.557Z,0.00
2023-03-17T03:09:35.526Z,0.00
2023-03-17T03:10:35.503Z,0.00
2023-03-17T03:11:35.493Z,0.00
2023-03-17T03:12:35.537Z,0.00
2023-03-17T03:13:35.498Z,0.00
2023-03-17T03:14:35.488Z,0.00
2023-03-17T03:15:35.550Z,0.00
2023-03-17T03:16:35.448Z,0.00
2023-03-17T03:17:35.450Z,0.00
2023-03-17T03:18:35.425Z,0.00
2023-03-17T03:19:35.403Z,0.00
2023-03-17T03:20:35.434Z,0.00
2023-03-17T03:21:35.426Z,0.00
2023-03-17T03:22:35.397Z,0.00
2023-03-17T03:23:35.358Z,0.00
2023-03-17T03:24:35.384Z,0.00
2023-03-17T03:25:35.341Z,0.00
2023-03-17T03:26:35.348Z,0.00
2023-03-17T03:27:35.318Z,0.00
2023-03-17T03:28:35.307Z,0.00
2023-03-17T03:29:35.315Z,0.00
2023-03-17T03:30:35.298Z,0.00
2023-03-17T03:31:35.269Z,0.00
2023-03-17T03:32:35.316Z,0.00
2023-03-17T03:33:35.282Z,0.00
2023-03-17T03:34:35.257Z,0.00
2023-03-17T03:35:35.284Z,0.00
2023-03-17T03:36:35.247Z,0.00
2023-03-17T03:37:35.223Z,0.00
2023-03-17T03:38:35.237Z,0.00
2023-03-17T03:39:35.180Z,0.00
2023-03-17T03:40:35.607Z,0.00
2023-03-17T03:41:35.165Z,0.00
2023-03-17T03:42:35.144Z,0.00
2023-03-17T03:43:35.133Z,0.00
2023-03-17T03:44:35.177Z,0.00
2023-03-17T03:45:35.117Z,0.00
2023-03-17T03:46:35.201Z,0.00
2023-03-17T03:47:35.109Z,0.00
2023-03-17T03:48:35.230Z,0.00
2023-03-17T03:49:35.097Z,0.00
2023-03-17T03:50:35.083Z,0.00
2023-03-17T03:51:35.053Z,0.00
2023-03-17T03:52:35.058Z,0.00
2023-03-17T03:53:35.021Z,0.00
2023-03-17T03:54:35.006Z,0.00
2023-03-17T03:55:35.023Z,0.00
2023-03-17T03:56:34.983Z,0.00
2023-03-17T03:57:34.977Z,0.00
2023-03-17T03:58:34.981Z,0.00
2023-03-17T03:59:34.949Z,0.00
2023-03-17T04:00:34.962Z,0.00
2023-03-17T04:01:34.934Z,0.00
2023-03-17T04:02:35.003Z,0.00
2023-03-17T04:03:35.053Z,0.00
2023-03-17T04:04:34.937Z,0.00
2023-03-17T04:05:34.910Z,0.00
2023-03-17T04:06:34.898Z,0.00
2023-03-17T04:07:35.059Z,0.00
2023-03-17T04:08:35.456Z,0.00
2023-03-17T04:09:34.929Z,0.00
2023-03-17T04:10:34.917Z,0.00
2023-03-17T04:11:35.272Z,0.00
2023-03-17T04:12:34.831Z,0.00
2023-03-17T04:13:34.796Z,0.00
2023-03-17T04:14:34.787Z,0.00
2023-03-17T04:15:34.856Z,0.00
2023-03-17T04:16:34.924Z,0.00
2023-03-17T04:17:34.765Z,0.00
2023-03-17T04:18:34.807Z,0.00
2023-03-17T04:19:34.873Z,0.00
2023-03-17T04:20:34.758Z,0.00
2023-03-17T04:21:34.706Z,0.00
2023-03-17T04:22:34.700Z,0.00
2023-03-17T04:23:34.731Z,0.00
2023-03-17T04:24:34.699Z,0.00
2023-03-17T04:25:34.687Z,0.00
2023-03-17T04:26:34.843Z,0.00
2023-03-17T04:27:34.638Z,0.00
2023-03-17T04:28:34.650Z,0.00
2023-03-17T04:29:34.627Z,0.00
2023-03-17T04:30:34.602Z,0.00
2023-03-17T04:31:34.668Z,0.00
2023-03-17T04:32:34.672Z,0.00
2023-03-17T04:33:34.588Z,0.00
2023-03-17T04:34:34.603Z,0.00
2023-03-17T04:35:34.667Z,0.00
2023-03-17T04:36:34.557Z,0.00
2023-03-17T04:37:34.742Z,0.00
2023-03-17T04:38:34.550Z,0.00
2023-03-17T04:39:34.607Z,0.00
2023-03-17T04:40:34.572Z,0.00
2023-03-17T04:41:34.540Z,0.00
2023-03-17T04:42:34.582Z,0.00
2023-03-17T04:43:34.495Z,0.00
2023-03-17T04:44:34.495Z,0.00
2023-03-17T04:45:34.464Z,0.00
2023-03-17T04:46:34.729Z,0.00
2023-03-17T04:47:34.415Z,0.00
2023-03-17T04:48:34.428Z,0.00
2023-03-17T04:49:34.414Z,0.00
2023-03-17T04:50:34.400Z,0.00
2023-03-17T04:51:34.390Z,0.00
2023-03-17T04:52:34.381Z,0.00
2023-03-17T04:53:34.345Z,0.00
2023-03-17T04:54:34.334Z,0.00
2023-03-17T04:55:34.504Z,0.00
2023-03-17T04:56:34.551Z,0.00
2023-03-17T04:57:34.354Z,0.00
2023-03-17T04:58:34.305Z,0.00
2023-03-17T04:59:34.283Z,0.00
2023-03-17T05:00:34.352Z,0.00
2023-03-17T05:01:34.256Z,0.00
2023-03-17T05:02:34.320Z,0.00
2023-03-17T05:03:34.242Z,0.00
2023-03-17T05:04:34.230Z,4.00
2023-03-17T05:05:34.233Z,4.00
2023-03-17T05:06:34.209Z,0.00
2023-03-17T05:07:34.352Z,4.00
2023-03-17T05:08:34.205Z,4.00
2023-03-17T05:09:34.176Z,4.00
2023-03-17T05:10:34.174Z,4.00
2023-03-17T05:11:34.142Z,8.00
2023-03-17T05:12:34.155Z,8.00
2023-03-17T05:13:34.131Z,12.00
2023-03-17T05:14:34.118Z,12.00
2023-03-17T05:15:34.136Z,12.00
2023-03-17T05:16:34.126Z,20.00
2023-03-17T05:17:34.092Z,20.00
2023-03-17T05:18:34.067Z,24.00
2023-03-17T05:19:34.078Z,28.00
2023-03-17T05:20:34.041Z,32.00
2023-03-17T05:21:34.069Z,36.00
2023-03-17T05:22:34.024Z,44.00
2023-03-17T05:23:34.070Z,48.00
2023-03-17T05:24:34.041Z,56.00
2023-03-17T05:25:33.994Z,64.00
2023-03-17T05:26:34.004Z,68.00
2023-03-17T05:27:33.974Z,80.00
2023-03-17T05:28:34.020Z,84.00
2023-03-17T05:29:34.148Z,92.00
2023-03-17T05:30:34.529Z,104.00
2023-03-17T05:31:34.028Z,112.00
2023-03-17T05:32:33.922Z,124.00
2023-03-17T05:33:34.029Z,136.00
2023-03-17T05:34:33.913Z,148.00
2023-03-17T05:35:33.926Z,160.00
2023-03-17T05:36:33.888Z,176.00
2023-03-17T05:37:33.914Z,188.00
2023-03-17T05:38:33.853Z,204.00
2023-03-17T05:39:34.198Z,216.00
2023-03-17T05:40:34.039Z,236.00
2023-03-17T05:41:33.899Z,248.00
2023-03-17T05:42:34.031Z,264.00
2023-03-17T05:43:33.847Z,280.00
2023-03-17T05:44:34.218Z,296.00
2023-03-17T05:45:33.775Z,312.00
2023-03-17T05:46:33.908Z,328.00
2023-03-17T05:47:33.753Z,348.00
2023-03-17T05:48:33.755Z,364.00
2023-03-17T05:49:33.783Z,388.00
2023-03-17T05:50:33.792Z,408.00
2023-03-17T05:51:36.361Z,428.00
2023-03-17T05:52:33.731Z,452.00
2023-03-17T05:53:33.691Z,476.00
2023-03-17T05:54:33.959Z,504.00
2023-03-17T05:55:33.655Z,528.00
2023-03-17T05:56:33.940Z,556.00
2023-03-17T05:57:33.655Z,584.00
2023-03-17T05:58:33.624Z,612.00
2023-03-17T05:59:33.635Z,644.00
2023-03-17T06:00:33.662Z,680.00
2023-03-17T06:01:33.798Z,712.00
2023-03-17T06:02:33.612Z,748.00
2023-03-17T06:03:33.666Z,780.00
2023-03-17T06:04:33.562Z,816.00
2023-03-17T06:05:33.569Z,852.00
2023-03-17T06:06:33.574Z,880.00
2023-03-17T06:07:44.883Z,904.00
2023-03-17T06:08:34.507Z,932.00
2023-03-17T06:09:33.516Z,960.00
2023-03-17T06:10:33.787Z,976.00
2023-03-17T06:11:33.508Z,988.00
2023-03-17T06:12:33.467Z,1000.00
2023-03-17T06:13:33.459Z,1024.00
2023-03-17T06:14:33.466Z,1048.00
2023-03-17T06:15:34.348Z,1072.00
2023-03-17T06:16:33.482Z,1100.00
2023-03-17T06:17:33.416Z,1120.00
2023-03-17T06:18:33.397Z,1180.00
2023-03-17T06:19:33.453Z,1212.00
2023-03-17T06:20:33.423Z,1232.00
2023-03-17T06:21:33.372Z,1240.00
2023-03-17T06:22:33.366Z,1248.00
2023-03-17T06:23:33.350Z,1268.00
2023-03-17T06:24:33.332Z,1304.00
2023-03-17T06:25:33.690Z,1316.00
2023-03-17T06:26:33.315Z,1336.00
2023-03-17T06:27:33.309Z,1368.00
2023-03-17T06:28:33.286Z,1424.00
2023-03-17T06:29:33.279Z,1492.00
2023-03-17T06:30:33.294Z,1524.00
2023-03-17T06:31:33.298Z,1552.00
2023-03-17T06:32:33.294Z,1580.00
2023-03-17T06:33:33.257Z,1560.00
2023-03-17T06:34:33.245Z,1616.00
2023-03-17T06:35:33.826Z,1664.00
2023-03-17T06:36:33.216Z,1688.00
2023-03-17T06:37:33.232Z,1696.00
2023-03-17T06:38:33.192Z,1748.00
2023-03-17T06:39:33.161Z,1804.00
2023-03-17T06:40:33.197Z,1852.00
2023-03-17T06:41:33.153Z,1860.00
2023-03-17T06:42:33.166Z,1836.00
2023-03-17T06:43:33.122Z,1912.00
2023-03-17T06:44:33.122Z,1976.00
2023-03-17T06:45:33.475Z,2024.00
2023-03-17T06:46:33.294Z,2088.00
2023-03-17T06:47:33.088Z,2156.00
2023-03-17T06:48:33.101Z,2192.00
2023-03-17T06:49:33.086Z,2308.00
2023-03-17T06:50:33.075Z,2360.00
2023-03-17T06:51:33.072Z,2456.00
2023-03-17T06:52:33.029Z,2564.00
2023-03-17T06:53:33.019Z,2632.00
2023-03-17T06:54:33.016Z,2772.00
2023-03-17T06:55:33.376Z,2876.00
2023-03-17T06:56:36.711Z,2948.00
2023-03-17T06:57:32.967Z,3004.00
2023-03-17T06:58:32.981Z,3068.00
2023-03-17T06:59:32.989Z,3120.00
2023-03-17T07:00:32.929Z,3232.00
2023-03-17T07:01:32.982Z,3288.00
2023-03-17T07:02:32.936Z,3312.00
2023-03-17T07:03:32.899Z,3324.00
2023-03-17T07:04:32.963Z,3296.00
2023-03-17T07:05:33.376Z,3304.00
2023-03-17T07:06:32.892Z,3204.00
2023-03-17T07:07:32.866Z,3088.00
2023-03-17T07:08:32.841Z,2968.00
2023-03-17T07:09:32.850Z,2844.00
2023-03-17T07:10:32.834Z,2684.00
2023-03-17T07:11:32.842Z,2596.00
2023-03-17T07:12:32.820Z,2544.00
2023-03-17T07:13:32.792Z,2548.00
2023-03-17T07:14:32.778Z,2556.00
2023-03-17T07:15:33.208Z,2616.00
2023-03-17T07:16:32.829Z,2664.00
2023-03-17T07:17:32.744Z,2764.00
2023-03-17T07:18:32.737Z,2880.00
2023-03-17T07:19:32.732Z,3028.00
2023-03-17T07:20:32.726Z,3196.00
2023-03-17T07:21:32.731Z,3316.00
2023-03-17T07:22:32.696Z,3472.00
2023-03-17T07:23:32.740Z,3608.00
2023-03-17T07:24:32.684Z,3752.00
2023-03-17T07:25:33.071Z,3916.00
2023-03-17T07:26:32.657Z,3988.00
2023-03-17T07:27:32.662Z,4056.00
2023-03-17T07:28:32.629Z,4088.00
2023-03-17T07:29:33.038Z,4032.00
2023-03-17T07:30:32.638Z,4056.00
2023-03-17T07:31:32.678Z,4040.00
2023-03-17T07:32:32.637Z,4012.00
2023-03-17T07:33:32.588Z,3996.00
2023-03-17T07:34:32.550Z,3888.00
2023-03-17T07:35:32.937Z,3920.00
2023-03-17T07:36:32.546Z,3912.00
2023-03-17T07:37:32.533Z,3844.00
2023-03-17T07:38:32.504Z,3840.00
2023-03-17T07:39:32.489Z,3932.00
2023-03-17T07:40:35.155Z,3980.00
2023-03-17T07:41:32.475Z,4024.00
2023-03-17T07:42:32.493Z,4044.00
2023-03-17T07:43:32.450Z,4044.00
2023-03-17T07:44:32.478Z,4104.00
2023-03-17T07:45:32.820Z,4136.00
2023-03-17T07:46:32.440Z,4032.00
2023-03-17T07:47:32.441Z,4148.00
2023-03-17T07:48:32.395Z,4276.00
2023-03-17T07:49:41.255Z,4364.00
2023-03-17T07:50:32.378Z,4404.00
2023-03-17T07:51:32.361Z,4388.00
2023-03-17T07:52:32.414Z,4436.00
2023-03-17T07:53:32.359Z,4512.00
2023-03-17T07:54:32.402Z,4600.00
2023-03-17T07:55:33.258Z,4664.00
2023-03-17T07:56:40.505Z,4676.00
2023-03-17T07:57:32.444Z,4732.00
2023-03-17T07:58:32.286Z,4792.00
2023-03-17T07:59:32.281Z,4812.00
2023-03-17T08:00:32.577Z,4848.00
2023-03-17T08:01:32.248Z,4860.00
2023-03-17T08:02:32.443Z,4900.00
2023-03-17T08:03:32.340Z,4872.00
2023-03-17T08:04:32.220Z,4892.00
2023-03-17T08:05:32.189Z,4788.00
2023-03-17T08:06:32.213Z,4680.00
2023-03-17T08:07:32.195Z,4720.00
2023-03-17T08:08:32.179Z,4708.00
2023-03-17T08:09:32.221Z,4788.00
2023-03-17T08:10:32.545Z,4912.00
2023-03-17T08:11:32.150Z,4924.00
2023-03-17T08:12:32.134Z,4956.00
2023-03-17T08:13:32.129Z,4860.00
2023-03-17T08:14:32.100Z,4812.00
2023-03-17T08:15:32.120Z,4936.00
2023-03-17T08:16:32.150Z,4932.00
2023-03-17T08:17:32.110Z,4888.00
2023-03-17T08:18:32.104Z,4872.00
2023-03-17T08:19:32.106Z,4900.00
2023-03-17T08:20:32.405Z,4892.00
2023-03-17T08:21:32.116Z,4732.00
2023-03-17T08:22:32.008Z,4824.00
2023-03-17T08:23:31.996Z,4788.00
2023-03-17T08:24:32.008Z,4788.00
2023-03-17T08:25:32.004Z,4776.00
2023-03-17T08:26:32.020Z,4664.00
2023-03-17T08:27:33.792Z,4656.00
2023-03-17T08:28:31.961Z,4668.00
2023-03-17T08:29:31.949Z,4644.00
2023-03-17T08:30:33.800Z,4608.00
2023-03-17T08:31:31.999Z,4620.00
2023-03-17T08:32:32.026Z,4456.00
2023-03-17T08:33:31.881Z,4560.00
2023-03-17T08:34:31.866Z,4556.00
2023-03-17T08:35:32.126Z,4512.00
2023-03-17T08:36:31.873Z,4504.00
2023-03-17T08:37:31.843Z,4436.00
2023-03-17T08:38:31.829Z,4480.00
2023-03-17T08:39:31.826Z,4460.00
2023-03-17T08:40:32.285Z,4476.00
2023-03-17T08:41:31.880Z,4404.00
2023-03-17T08:42:31.780Z,4412.00
2023-03-17T08:43:31.797Z,4432.00
2023-03-17T08:44:31.756Z,4472.00
2023-03-17T08:45:32.137Z,4516.00
2023-03-17T08:46:31.891Z,4560.00
2023-03-17T08:47:31.725Z,4592.00
2023-03-17T08:48:31.720Z,4660.00
2023-03-17T08:49:31.732Z,4664.00
2023-03-17T08:50:32.042Z,4140.00
2023-03-17T08:51:31.710Z,4728.00
2023-03-17T08:52:31.668Z,4776.00
2023-03-17T08:53:31.654Z,4556.00
2023-03-17T08:54:31.711Z,4660.00
2023-03-17T08:55:31.639Z,4184.00
2023-03-17T08:56:31.646Z,4900.00
2023-03-17T08:57:31.614Z,5056.00
2023-03-17T08:58:31.603Z,5112.00
2023-03-17T08:59:31.622Z,4804.00
2023-03-17T09:00:31.866Z,5140.00
2023-03-17T09:01:31.640Z,5048.00
2023-03-17T09:02:31.805Z,5080.00
2023-03-17T09:03:31.585Z,5336.00
2023-03-17T09:04:31.579Z,5316.00
2023-03-17T09:05:32.037Z,5496.00
2023-03-17T09:06:31.542Z,5332.00
2023-03-17T09:07:31.552Z,5444.00
2023-03-17T09:08:31.486Z,5308.00
2023-03-17T09:09:31.470Z,5744.00
2023-03-17T09:10:31.703Z,5548.00
2023-03-17T09:11:31.475Z,5604.00
2023-03-17T09:12:33.180Z,5880.00
2023-03-17T09:13:31.431Z,5972.00
2023-03-17T09:14:40.105Z,5836.00
2023-03-17T09:15:32.844Z,5120.00
2023-03-17T09:16:31.530Z,5652.00
2023-03-17T09:17:31.381Z,5788.00
2023-03-17T09:18:31.451Z,5408.00
2023-03-17T09:19:31.396Z,6344.00
2023-03-17T09:20:31.611Z,6116.00
2023-03-17T09:21:31.360Z,6044.00
2023-03-17T09:22:31.365Z,5968.00
2023-03-17T09:23:31.312Z,6356.00
2023-03-17T09:24:31.306Z,6192.00
2023-03-17T09:25:31.319Z,6228.00
2023-03-17T09:26:31.316Z,5876.00
2023-03-17T09:27:31.314Z,6864.00
2023-03-17T09:28:31.276Z,6216.00
2023-03-17T09:29:31.249Z,6272.00
2023-03-17T09:30:31.413Z,6444.00
2023-03-17T09:31:31.332Z,6352.00
2023-03-17T09:32:31.273Z,6672.00
2023-03-17T09:33:31.213Z,6476.00
2023-03-17T09:34:31.191Z,6900.00
2023-03-17T09:35:31.240Z,7100.00
2023-03-17T09:36:31.227Z,7136.00
2023-03-17T09:37:31.173Z,7292.00
2023-03-17T09:38:31.150Z,7168.00
2023-03-17T09:39:31.174Z,7584.00
2023-03-17T09:40:31.502Z,7692.00
2023-03-17T09:41:31.119Z,8028.00
2023-03-17T09:42:31.143Z,8208.00
2023-03-17T09:43:31.081Z,8472.00
2023-03-17T09:44:31.101Z,8324.00
2023-03-17T09:45:31.087Z,7972.00
2023-03-17T09:46:31.064Z,8100.00
2023-03-17T09:47:31.042Z,8464.00
2023-03-17T09:48:31.041Z,8744.00
2023-03-17T09:49:31.033Z,8496.00
2023-03-17T09:50:31.233Z,8396.00
2023-03-17T09:51:30.997Z,8372.00
2023-03-17T09:52:31.003Z,8208.00
2023-03-17T09:53:31.001Z,8424.00
2023-03-17T09:54:30.965Z,8372.00
2023-03-17T09:55:31.255Z,8676.00
2023-03-17T09:56:30.956Z,8612.00
2023-03-17T09:57:30.973Z,8740.00
2023-03-17T09:58:30.949Z,8864.00
2023-03-17T09:59:30.914Z,9056.00
2023-03-17T10:00:30.924Z,9176.00
2023-03-17T10:01:30.997Z,9268.00
2023-03-17T10:02:30.903Z,9292.00
2023-03-17T10:03:30.860Z,9036.00
2023-03-17T10:04:30.892Z,8868.00
2023-03-17T10:05:31.517Z,9152.00
2023-03-17T10:06:30.837Z,9024.00
2023-03-17T10:07:30.823Z,8736.00
2023-03-17T10:08:32.244Z,9044.00
2023-03-17T10:09:30.833Z,9036.00
2023-03-17T10:10:31.083Z,8992.00
2023-03-17T10:11:30.783Z,8964.00
2023-03-17T10:12:30.809Z,9040.00
2023-03-17T10:13:30.778Z,8628.00
2023-03-17T10:14:30.744Z,9096.00
2023-03-17T10:15:31.077Z,9080.00
2023-03-17T10:16:30.936Z,9208.00
2023-03-17T10:17:30.709Z,8736.00
2023-03-17T10:18:30.691Z,8848.00
2023-03-17T10:19:30.686Z,8832.00
2023-03-17T10:20:30.695Z,9012.00
2023-03-17T10:21:30.650Z,8228.00
2023-03-17T10:22:30.643Z,9124.00
2023-03-17T10:23:30.637Z,9044.00
2023-03-17T10:24:30.642Z,8448.00
2023-03-17T10:25:31.091Z,8244.00
2023-03-17T10:26:30.612Z,7584.00
2023-03-17T10:27:30.592Z,8468.00
2023-03-17T10:28:30.585Z,8536.00
2023-03-17T10:29:30.618Z,8740.00
2023-03-17T10:30:30.985Z,8900.00
2023-03-17T10:31:30.829Z,7484.00
2023-03-17T10:32:30.603Z,7880.00
2023-03-17T10:33:30.521Z,7980.00
2023-03-17T10:34:30.514Z,7116.00
2023-03-17T10:35:30.820Z,7916.00
2023-03-17T10:36:30.590Z,8196.00
2023-03-17T10:37:30.481Z,7892.00
2023-03-17T10:38:30.465Z,8500.00
2023-03-17T10:39:32.699Z,8560.00
2023-03-17T10:40:30.647Z,8516.00
2023-03-17T10:41:30.475Z,7868.00
2023-03-17T10:42:30.453Z,7328.00
2023-03-17T10:43:30.490Z,7956.00
2023-03-17T10:44:30.464Z,7444.00
2023-03-17T10:45:30.508Z,7152.00
2023-03-17T10:46:30.779Z,6888.00
2023-03-17T10:47:30.368Z,6960.00
2023-03-17T10:48:30.367Z,6972.00
2023-03-17T10:49:30.335Z,7152.00
2023-03-17T10:50:30.900Z,7112.00
2023-03-17T10:51:30.321Z,6704.00
2023-03-17T10:52:30.317Z,6976.00
2023-03-17T10:53:30.348Z,6876.00
2023-03-17T10:54:30.284Z,6904.00
2023-03-17T10:55:30.282Z,6936.00
2023-03-17T10:56:30.309Z,6844.00
2023-03-17T10:57:30.294Z,7144.00
2023-03-17T10:58:30.237Z,7180.00
2023-03-17T11:00:30.564Z,6864.00
2023-03-17T11:01:30.355Z,6912.00
2023-03-17T11:02:30.222Z,6796.00
2023-03-17T11:03:30.282Z,7480.00
2023-03-17T11:04:30.249Z,7364.00
2023-03-17T11:05:30.194Z,7424.00
2023-03-17T11:06:30.172Z,7284.00
2023-03-17T11:07:30.200Z,7340.00
2023-03-17T11:08:30.136Z,7352.00
2023-03-17T11:09:30.158Z,7128.00
2023-03-17T11:10:30.504Z,7032.00
2023-03-17T11:11:30.093Z,6972.00
2023-03-17T11:12:30.092Z,6980.00
2023-03-17T11:13:30.109Z,6932.00
2023-03-17T11:14:30.083Z,6880.00
2023-03-17T11:15:30.053Z,6800.00
2023-03-17T11:16:30.068Z,6828.00
2023-03-17T11:17:30.020Z,6844.00
2023-03-17T11:18:32.001Z,6980.00
2023-03-17T11:19:30.003Z,7100.00
2023-03-17T11:20:30.252Z,7008.00
2023-03-17T11:21:29.992Z,7236.00
2023-03-17T11:22:29.987Z,7388.00
2023-03-17T11:23:30.001Z,7532.00
2023-03-17T11:24:31.424Z,7656.00
2023-03-17T11:25:29.933Z,7652.00
2023-03-17T11:26:29.939Z,7784.00
2023-03-17T11:27:29.951Z,7704.00
2023-03-17T11:28:29.903Z,7872.00
2023-03-17T11:29:29.915Z,7728.00
2023-03-17T11:30:30.346Z,7804.00
2023-03-17T11:31:29.936Z,7688.00
2023-03-17T11:32:29.960Z,7816.00
2023-03-17T11:33:29.859Z,7528.00
2023-03-17T11:34:29.958Z,7564.00
2023-03-17T11:35:29.885Z,7648.00
2023-03-17T11:36:29.832Z,7368.00
2023-03-17T11:37:29.812Z,7228.00
2023-03-17T11:38:29.822Z,7160.00
2023-03-17T11:39:29.801Z,7380.00
2023-03-17T11:40:30.113Z,7312.00
2023-03-17T11:41:29.766Z,7448.00
2023-03-17T11:42:29.748Z,7592.00
2023-03-17T11:43:29.768Z,7280.00
2023-03-17T11:44:29.731Z,7624.00
2023-03-17T11:45:29.742Z,7500.00
2023-03-17T11:46:29.743Z,7396.00
2023-03-17T11:47:29.716Z,7408.00
2023-03-17T11:48:29.695Z,7344.00
2023-03-17T11:49:29.669Z,7328.00
2023-03-17T11:50:30.436Z,7336.00
2023-03-17T11:51:29.677Z,7304.00
2023-03-17T11:52:29.646Z,7156.00
2023-03-17T11:53:29.639Z,7048.00
2023-03-17T11:54:29.620Z,7300.00
2023-03-17T11:55:29.598Z,7292.00
2023-03-17T11:56:29.606Z,7324.00
2023-03-17T11:57:29.578Z,7288.00
2023-03-17T11:58:29.585Z,7228.00
2023-03-17T11:59:29.560Z,7172.00
2023-03-17T12:00:29.991Z,7256.00
2023-03-17T12:01:29.774Z,7156.00
2023-03-17T12:02:29.548Z,7112.00
2023-03-17T12:03:29.572Z,6908.00
2023-03-17T12:04:29.561Z,6928.00
2023-03-17T12:05:29.493Z,6928.00
2023-03-17T12:06:29.469Z,7284.00
2023-03-17T12:07:29.481Z,7040.00
2023-03-17T12:08:29.493Z,7200.00
2023-03-17T12:09:29.445Z,7204.00
2023-03-17T12:10:29.747Z,7112.00
2023-03-17T12:11:29.436Z,7144.00
2023-03-17T12:12:29.409Z,7304.00
2023-03-17T12:13:29.388Z,7340.00
2023-03-17T12:14:29.382Z,7212.00
2023-03-17T12:15:29.444Z,7044.00
2023-03-17T12:16:29.466Z,6956.00
2023-03-17T12:17:30.397Z,6824.00
2023-03-17T12:18:29.356Z,6896.00
2023-03-17T12:19:29.321Z,6996.00
2023-03-17T12:20:29.747Z,7004.00
2023-03-17T12:21:29.306Z,7012.00
2023-03-17T12:22:29.285Z,6992.00
2023-03-17T12:23:29.304Z,7076.00
2023-03-17T12:24:29.284Z,7136.00
2023-03-17T12:25:29.264Z,7164.00
2023-03-17T12:26:29.269Z,7240.00
2023-03-17T12:27:29.237Z,7224.00
2023-03-17T12:28:29.221Z,7264.00
2023-03-17T12:29:29.226Z,7248.00
2023-03-17T12:30:29.437Z,7260.00
2023-03-17T12:31:29.356Z,7232.00
2023-03-17T12:32:29.196Z,7192.00
2023-03-17T12:33:29.191Z,7232.00
2023-03-17T12:34:29.150Z,7292.00
2023-03-17T12:35:29.722Z,7368.00
2023-03-17T12:36:29.157Z,7444.00
2023-03-17T12:37:29.112Z,7596.00